Archival Weather

Aeroparque Jorge Newbery

Aeroparque Jorge Newbery, Argentina (SABE)

Report from: Saturday, May 14, 2022 11:00 AM -03
Current time: Sunday, June 26, 2022 1:27 PM -03

Current weather
Weather history
Weather forecast

Temperature16.0°C (60.8°F)
Dew point12.0°C (53.6°F)
Winds 5 kts (2.6 m/s, 5.8 mph) Vrb
Winds variableWinds variable from East (100°) to Southwest (220°)
Visibility6.2 mi. (10 km)
Clouds Few clouds 1,200 ft. (366 m)
Altimeter30.09 in.Hg (1019 mB)
Relative humidity77 %
Density altitude120 ft. (37 m)
Remarks Corrected report
No significant changes expected in the next two hours
Flight conditions Visual Meteorological Conditions
Raw dataCOR SABE 141400Z 15005KT 100V220 9999 FEW012 16/12 Q1019 NOSIG RMK PP000
An error has occurred. This application may no longer respond until reloaded. Reload 🗙